createdAt,value
2023-03-29T00:00:08.967Z,101911.16
2023-03-29T00:02:39.319Z,101911.16
2023-03-29T00:05:07.485Z,101912.13
2023-03-29T00:07:35.310Z,101913.91
2023-03-29T00:10:04.651Z,101915.75
2023-03-29T00:12:32.245Z,101919.28
2023-03-29T00:14:59.633Z,101926.47
2023-03-29T00:17:26.985Z,101924.75
2023-03-29T00:19:54.373Z,101934.53
2023-03-29T00:22:22.027Z,101932.81
2023-03-29T00:24:49.412Z,101928.41
2023-03-29T00:27:16.842Z,101928.41
2023-03-29T00:29:44.203Z,101921.22
2023-03-29T00:32:11.788Z,101924.88
2023-03-29T00:34:42.680Z,101923.06
2023-03-29T00:37:10.160Z,101913.28
2023-03-29T00:39:37.622Z,101907.91
2023-03-29T00:42:05.004Z,101914.16
2023-03-29T00:44:54.006Z,101920.44
2023-03-29T00:47:29.198Z,101900.81
2023-03-29T00:50:01.771Z,101895.44
2023-03-29T00:52:32.134Z,101899.09
2023-03-29T00:55:06.117Z,101895.44
2023-03-29T00:57:34.230Z,101891.03
2023-03-29T01:00:05.524Z,101887.50
2023-03-29T01:02:35.043Z,101888.38
2023-03-29T01:05:05.716Z,101891.03
2023-03-29T01:07:47.984Z,101890.06
2023-03-29T01:10:23.522Z,101882.13
2023-03-29T01:12:56.343Z,101870.56
2023-03-29T01:15:28.739Z,101867.00
2023-03-29T01:17:58.478Z,101862.50
2023-03-29T01:20:49.064Z,101865.19
2023-03-29T01:23:16.952Z,101853.59
2023-03-29T01:26:11.453Z,101858.09
2023-03-29T01:28:51.760Z,101868.84
2023-03-29T01:31:27.180Z,101860.78
2023-03-29T01:34:16.752Z,101858.09
2023-03-29T01:36:54.783Z,101862.59
2023-03-29T01:39:22.186Z,101860.78
2023-03-29T01:42:24.072Z,101856.38
2023-03-29T01:44:57.446Z,101856.38
2023-03-29T01:47:43.311Z,101850.13
2023-03-29T01:50:35.555Z,101843.81
2023-03-29T01:53:09.348Z,101842.94
2023-03-29T01:55:40.615Z,101842.94
2023-03-29T01:58:11.853Z,101841.13
2023-03-29T02:00:42.149Z,101837.56
2023-03-29T02:03:10.637Z,101839.31
2023-03-29T02:05:39.518Z,101838.56
2023-03-29T02:08:09.924Z,101837.56
2023-03-29T02:10:38.037Z,101842.94
2023-03-29T02:13:06.258Z,101837.56
2023-03-29T02:15:33.926Z,101837.56
2023-03-29T02:18:04.096Z,101833.19
2023-03-29T02:20:36.948Z,101829.66
2023-03-29T02:23:23.488Z,101827.81
2023-03-29T02:25:53.632Z,101825.25
2023-03-29T02:28:24.189Z,101823.44
2023-03-29T02:31:30.718Z,101826.09
2023-03-29T02:34:28.233Z,101825.25
2023-03-29T02:37:03.924Z,101822.56
2023-03-29T02:39:34.727Z,101824.38
2023-03-29T02:42:04.000Z,101827.03
2023-03-29T02:44:33.412Z,101820.81
2023-03-29T02:47:08.931Z,101815.47
2023-03-29T02:49:36.272Z,101819.97
2023-03-29T02:52:11.656Z,101821.69
2023-03-29T02:54:43.298Z,101828.88
2023-03-29T02:57:11.501Z,101816.44
2023-03-29T02:59:40.899Z,101815.47
2023-03-29T03:02:08.267Z,101811.06
2023-03-29T03:04:35.852Z,101806.56
2023-03-29T03:07:06.941Z,101794.22
2023-03-29T03:09:34.383Z,101812.03
2023-03-29T03:12:01.900Z,101811.19
2023-03-29T03:14:29.735Z,101812.13
2023-03-29T03:17:00.297Z,101813.88
2023-03-29T03:19:29.634Z,101812.13
2023-03-29T03:21:57.027Z,101814.81
2023-03-29T03:24:24.449Z,101809.44
2023-03-29T03:26:51.923Z,101802.38
2023-03-29T03:29:20.110Z,101803.22
2023-03-29T03:32:08.232Z,101796.03
2023-03-29T03:34:54.097Z,101795.16
2023-03-29T03:37:24.907Z,101806.75
2023-03-29T03:39:52.208Z,101801.50
2023-03-29T03:42:19.896Z,101814.91
2023-03-29T03:44:47.735Z,101806.88
2023-03-29T03:47:35.518Z,101800.66
2023-03-29T03:50:17.777Z,101799.78
2023-03-29T03:52:45.194Z,101802.47
2023-03-29T03:55:13.087Z,101798.94
2023-03-29T03:57:52.631Z,101792.59
2023-03-29T04:00:21.457Z,101796.25
2023-03-29T04:03:07.060Z,101778.34
2023-03-29T04:05:40.220Z,101784.69
2023-03-29T04:08:08.539Z,101789.16
2023-03-29T04:10:58.957Z,101797.19
2023-03-29T04:13:34.369Z,101806.13
2023-03-29T04:16:28.433Z,101807.94
2023-03-29T04:19:00.397Z,101806.13
2023-03-29T04:21:29.149Z,101816.88
2023-03-29T04:23:56.424Z,101807.00
2023-03-29T04:26:23.938Z,101806.13
2023-03-29T04:28:57.466Z,101790.91
2023-03-29T04:31:34.717Z,101789.16
2023-03-29T04:34:24.979Z,101788.28
2023-03-29T04:36:54.490Z,101797.19
2023-03-29T04:39:32.073Z,101802.56
2023-03-29T04:42:00.212Z,101807.06
2023-03-29T04:44:29.896Z,101807.06
2023-03-29T04:47:00.490Z,101814.28
2023-03-29T04:49:37.339Z,101816.94
2023-03-29T04:52:09.691Z,101822.31
2023-03-29T04:54:37.944Z,101827.69
2023-03-29T04:57:25.423Z,101824.16
2023-03-29T05:00:00.096Z,101817.91
2023-03-29T05:02:47.859Z,101823.28
2023-03-29T05:05:16.152Z,101823.28
2023-03-29T05:07:45.457Z,101826.94
2023-03-29T05:10:14.879Z,101837.69
2023-03-29T05:12:42.715Z,101837.69
2023-03-29T05:15:10.448Z,101836.81
2023-03-29T05:17:38.060Z,101840.34
2023-03-29T05:20:10.323Z,101845.81
2023-03-29T05:22:38.495Z,101854.72
2023-03-29T05:25:09.216Z,101859.22
2023-03-29T05:27:37.107Z,101856.53
2023-03-29T05:30:09.626Z,101868.13
2023-03-29T05:32:51.093Z,101868.13
2023-03-29T05:35:25.535Z,101866.41
2023-03-29T05:37:54.071Z,101860.19
2023-03-29T05:40:22.762Z,101871.78
2023-03-29T05:43:09.166Z,101869.22
2023-03-29T05:45:36.443Z,101864.69
2023-03-29T05:48:04.067Z,101869.22
2023-03-29T05:50:32.108Z,101871.03
2023-03-29T05:53:00.585Z,101864.69
2023-03-29T05:55:28.318Z,101863.84
2023-03-29T05:57:55.934Z,101862.03
2023-03-29T06:00:26.840Z,101878.13
2023-03-29T06:03:17.648Z,101890.66
2023-03-29T06:05:49.936Z,101871.88
2023-03-29T06:08:17.944Z,101870.19
2023-03-29T06:11:05.790Z,101874.56
2023-03-29T06:14:08.155Z,101888.84
2023-03-29T06:16:42.698Z,101878.13
2023-03-29T06:19:11.280Z,101886.16
2023-03-29T06:21:41.274Z,101892.38
2023-03-29T06:24:11.248Z,101899.47
2023-03-29T06:26:45.250Z,101894.09
2023-03-29T06:29:13.036Z,101889.59
2023-03-29T06:31:42.501Z,101879.81
2023-03-29T06:34:23.110Z,101886.91
2023-03-29T06:37:09.014Z,101883.28
2023-03-29T06:39:36.492Z,101882.31
2023-03-29T06:42:22.710Z,101886.72
2023-03-29T06:45:10.892Z,101888.53
2023-03-29T06:47:41.050Z,101894.75
2023-03-29T06:50:09.424Z,101906.34
2023-03-29T06:52:49.911Z,101902.81
2023-03-29T06:55:18.626Z,101898.41
2023-03-29T06:57:45.918Z,101905.50
2023-03-29T07:00:27.863Z,101897.44
2023-03-29T07:03:20.366Z,101900.13
2023-03-29T07:05:52.106Z,101919.75
2023-03-29T07:08:22.486Z,101922.44
2023-03-29T07:10:59.454Z,101910.00
2023-03-29T07:13:46.242Z,101912.69
2023-03-29T07:16:18.068Z,101910.84
2023-03-29T07:19:08.923Z,101922.44
2023-03-29T07:21:59.258Z,101913.53
2023-03-29T07:24:39.227Z,101910.84
2023-03-29T07:27:07.364Z,101918.91
2023-03-29T07:29:34.734Z,101918.91
2023-03-29T07:32:04.441Z,101919.75
2023-03-29T07:34:51.932Z,101914.38
2023-03-29T07:37:36.506Z,101922.44
2023-03-29T07:40:16.209Z,101919.75
2023-03-29T07:43:11.108Z,101925.97
2023-03-29T07:45:42.380Z,101926.94
2023-03-29T07:48:11.854Z,101938.53
2023-03-29T07:50:54.887Z,101929.56
2023-03-29T07:53:29.805Z,101935.78
2023-03-29T07:55:58.899Z,101931.34
2023-03-29T07:58:44.586Z,101937.59
2023-03-29T08:01:18.878Z,101933.09
2023-03-29T08:04:14.074Z,101937.47
2023-03-29T08:07:06.800Z,101939.19
2023-03-29T08:10:11.613Z,101940.91
2023-03-29T08:13:07.412Z,101943.50
2023-03-29T08:15:53.425Z,101937.19
2023-03-29T08:18:34.614Z,101934.38
2023-03-29T08:21:04.308Z,101936.00
2023-03-29T08:23:32.368Z,101938.69
2023-03-29T08:26:16.236Z,101936.78
2023-03-29T08:28:44.799Z,101941.19
2023-03-29T08:31:13.113Z,101933.97
2023-03-29T08:33:44.449Z,101934.94
2023-03-29T08:36:30.452Z,101938.38
2023-03-29T08:39:03.370Z,101935.69
2023-03-29T08:41:47.384Z,101930.25
2023-03-29T08:44:17.708Z,101934.63
2023-03-29T08:47:03.278Z,101940.88
2023-03-29T08:49:42.633Z,101931.84
2023-03-29T08:52:22.008Z,101918.41
2023-03-29T08:54:53.672Z,101913.91
2023-03-29T08:57:48.739Z,101917.38
2023-03-29T09:00:39.232Z,101914.56
2023-03-29T09:03:30.699Z,101916.31
2023-03-29T09:06:07.743Z,101914.47
2023-03-29T09:08:38.355Z,101920.72
2023-03-29T09:11:24.062Z,101915.22
2023-03-29T09:14:16.505Z,101909.84
2023-03-29T09:16:52.731Z,101909.84
2023-03-29T09:19:31.995Z,101914.25
2023-03-29T09:22:04.285Z,101899.97
2023-03-29T09:24:41.072Z,101910.09
2023-03-29T09:27:28.776Z,101903.03
2023-03-29T09:30:25.889Z,101891.84
2023-03-29T09:33:21.576Z,101901.94
2023-03-29T09:36:34.127Z,101901.63
2023-03-29T09:39:02.453Z,101896.91
2023-03-29T09:41:40.243Z,101900.88
2023-03-29T09:44:24.214Z,101891.31
2023-03-29T09:47:03.558Z,101901.41
2023-03-29T09:49:39.753Z,101901.50
2023-03-29T09:52:14.067Z,101897.09
2023-03-29T09:54:45.242Z,101890.97
2023-03-29T09:57:31.135Z,101887.31
2023-03-29T10:00:04.121Z,101890.88
2023-03-29T10:02:41.032Z,101890.00
2023-03-29T10:05:16.826Z,101892.25
2023-03-29T10:07:50.462Z,101889.34
2023-03-29T10:10:25.640Z,101886.41
2023-03-29T10:12:56.847Z,101879.75
2023-03-29T10:15:30.249Z,101884.44
2023-03-29T10:18:05.670Z,101885.31
2023-03-29T10:20:36.675Z,101878.00
2023-03-29T10:23:06.915Z,101864.50
2023-03-29T10:25:40.328Z,101865.16
2023-03-29T10:28:17.613Z,101864.94
2023-03-29T10:30:52.737Z,101866.44
2023-03-29T10:33:24.190Z,101860.13
2023-03-29T10:35:51.834Z,101855.63
2023-03-29T10:38:22.821Z,101850.13
2023-03-29T10:40:53.386Z,101860.78
2023-03-29T10:43:29.683Z,101861.66
2023-03-29T10:46:08.206Z,101855.31
2023-03-29T10:48:36.147Z,101865.06
2023-03-29T10:51:05.631Z,101857.00
2023-03-29T10:53:35.979Z,101859.63
2023-03-29T10:56:09.335Z,101854.25
2023-03-29T10:59:00.480Z,101845.22
2023-03-29T11:02:01.817Z,101838.03
2023-03-29T11:04:59.270Z,101838.16
2023-03-29T11:07:26.471Z,101835.34
2023-03-29T11:10:11.652Z,101838.03
2023-03-29T11:12:48.092Z,101843.28
2023-03-29T11:15:37.536Z,101830.84
2023-03-29T11:18:28.946Z,101831.69
2023-03-29T11:21:12.617Z,101833.50
2023-03-29T11:23:42.935Z,101837.91
2023-03-29T11:26:16.728Z,101829.84
2023-03-29T11:28:52.986Z,101829.97
2023-03-29T11:31:38.568Z,101821.72
2023-03-29T11:34:15.777Z,101818.19
2023-03-29T11:36:52.747Z,101820.75
2023-03-29T11:39:39.421Z,101809.16
2023-03-29T11:42:23.456Z,101808.06
2023-03-29T11:44:55.103Z,101803.59
2023-03-29T11:47:27.479Z,101798.22
2023-03-29T11:50:04.022Z,101793.72
2023-03-29T11:52:40.125Z,101786.72
2023-03-29T11:55:26.444Z,101791.34
2023-03-29T11:58:10.097Z,101788.88
2023-03-29T12:00:44.225Z,101787.25
2023-03-29T12:03:28.514Z,101794.56
2023-03-29T12:06:04.902Z,101798.19
2023-03-29T12:08:54.909Z,101790.25
2023-03-29T12:11:27.414Z,101779.53
2023-03-29T12:13:59.773Z,101783.19
2023-03-29T12:16:32.734Z,101771.59
2023-03-29T12:19:06.967Z,101758.25
2023-03-29T12:21:36.459Z,101766.22
2023-03-29T12:24:04.936Z,101768.78
2023-03-29T12:26:50.896Z,101760.72
2023-03-29T12:29:27.087Z,101755.38
2023-03-29T12:32:14.209Z,101760.63
2023-03-29T12:35:02.560Z,101757.84
2023-03-29T12:37:33.894Z,101757.94
2023-03-29T12:40:22.449Z,101748.09
2023-03-29T12:43:28.216Z,101747.19
2023-03-29T12:46:27.526Z,101736.47
2023-03-29T12:48:57.360Z,101736.38
2023-03-29T12:51:33.041Z,101736.47
2023-03-29T12:54:08.606Z,101733.78
2023-03-29T12:56:52.052Z,101729.31
2023-03-29T12:59:36.531Z,101730.25
2023-03-29T13:02:32.905Z,101737.44
2023-03-29T13:05:01.186Z,101725.84
2023-03-29T13:07:32.385Z,101726.72
2023-03-29T13:10:02.284Z,101725.00
2023-03-29T13:12:35.253Z,101725.84
2023-03-29T13:15:05.999Z,101729.50
2023-03-29T13:17:46.679Z,101721.47
2023-03-29T13:20:32.202Z,101718.78
2023-03-29T13:23:21.174Z,101716.09
2023-03-29T13:26:17.453Z,101706.31
2023-03-29T13:28:58.601Z,101704.50
2023-03-29T13:31:51.871Z,101700.94
2023-03-29T13:34:22.065Z,101701.81
2023-03-29T13:36:52.393Z,101701.81
2023-03-29T13:39:23.691Z,101693.84
2023-03-29T13:41:54.325Z,101693.84
2023-03-29T13:44:51.514Z,101692.88
2023-03-29T13:47:38.138Z,101700.09
2023-03-29T13:50:14.455Z,101687.53
2023-03-29T13:52:49.959Z,101692.88
2023-03-29T13:55:25.962Z,101681.31
2023-03-29T13:58:22.514Z,101678.63
2023-03-29T14:00:55.454Z,101683.97
2023-03-29T14:03:30.115Z,101676.78
2023-03-29T14:06:00.651Z,101678.75
2023-03-29T14:08:36.566Z,101676.06
2023-03-29T14:11:06.817Z,101669.84
2023-03-29T14:13:35.030Z,101667.03
2023-03-29T14:16:06.946Z,101664.47
2023-03-29T14:18:40.101Z,101669.84
2023-03-29T14:21:08.358Z,101660.94
2023-03-29T14:23:38.052Z,101654.72
2023-03-29T14:26:14.421Z,101658.25
2023-03-29T14:28:53.091Z,101661.88
2023-03-29T14:31:26.246Z,101654.72
2023-03-29T14:33:54.043Z,101657.41
2023-03-29T14:36:22.093Z,101652.88
2023-03-29T14:38:52.360Z,101651.16
2023-03-29T14:41:21.985Z,101656.41
2023-03-29T14:43:51.603Z,101648.47
2023-03-29T14:46:21.689Z,101651.16
2023-03-29T14:48:49.357Z,101655.56
2023-03-29T14:51:17.188Z,101648.47
2023-03-29T14:53:44.870Z,101646.66
2023-03-29T14:56:15.956Z,101649.34
2023-03-29T14:58:48.783Z,101649.34
2023-03-29T15:01:18.624Z,101656.50
2023-03-29T15:04:03.312Z,101662.75
2023-03-29T15:06:32.763Z,101655.56
2023-03-29T15:09:06.489Z,101652.03
2023-03-29T15:11:35.958Z,101653.81
2023-03-29T15:14:15.918Z,101655.66
2023-03-29T15:16:47.492Z,101659.19
2023-03-29T15:19:18.439Z,101653.81
2023-03-29T15:21:49.167Z,101654.81
2023-03-29T15:24:42.010Z,101653.81
2023-03-29T15:27:18.169Z,101644.06
2023-03-29T15:29:47.308Z,101644.06
2023-03-29T15:32:25.663Z,101644.06
2023-03-29T15:35:04.936Z,101647.59
2023-03-29T15:37:32.395Z,101648.59
2023-03-29T15:39:59.779Z,101650.28
2023-03-29T15:42:27.058Z,101657.47
2023-03-29T15:44:56.333Z,101642.38
2023-03-29T15:47:24.135Z,101652.97
2023-03-29T15:49:51.719Z,101655.66
2023-03-29T15:52:18.993Z,101654.81
2023-03-29T15:54:46.294Z,101647.72
2023-03-29T15:57:15.663Z,101653.94
2023-03-29T15:59:43.878Z,101652.13
2023-03-29T16:02:16.543Z,101645.91
2023-03-29T16:04:43.923Z,101653.94
2023-03-29T16:07:16.384Z,101659.31
2023-03-29T16:09:45.882Z,101653.09
2023-03-29T16:12:16.136Z,101655.78
2023-03-29T16:14:43.421Z,101655.78
2023-03-29T16:17:10.862Z,101652.25
2023-03-29T16:19:38.119Z,101657.59
2023-03-29T16:22:07.227Z,101645.16
2023-03-29T16:24:36.308Z,101642.38
2023-03-29T16:27:04.072Z,101641.50
2023-03-29T16:29:31.712Z,101629.91
2023-03-29T16:31:59.224Z,101626.25
2023-03-29T16:34:26.822Z,101624.56
2023-03-29T16:36:54.358Z,101629.06
2023-03-29T16:39:21.582Z,101629.91
2023-03-29T16:41:50.075Z,101621.03
2023-03-29T16:44:22.971Z,101621.03
2023-03-29T16:46:53.796Z,101629.91
2023-03-29T16:49:21.612Z,101637.13
2023-03-29T16:51:49.170Z,101641.50
2023-03-29T16:54:19.738Z,101638.91
2023-03-29T16:56:47.352Z,101633.56
2023-03-29T16:59:15.299Z,101637.13
2023-03-29T17:01:42.799Z,101640.75
2023-03-29T17:04:10.745Z,101638.91
2023-03-29T17:06:38.003Z,101637.13
2023-03-29T17:09:06.178Z,101643.44
2023-03-29T17:11:34.491Z,101638.81
2023-03-29T17:14:01.841Z,101645.91
2023-03-29T17:16:29.536Z,101635.16
2023-03-29T17:19:00.246Z,101643.09
2023-03-29T17:21:29.199Z,101640.41
2023-03-29T17:23:56.533Z,101643.84
2023-03-29T17:26:23.879Z,101638.63
2023-03-29T17:28:51.117Z,101644.72
2023-03-29T17:31:19.475Z,101639.34
2023-03-29T17:33:47.582Z,101650.94
2023-03-29T17:36:15.091Z,101651.78
2023-03-29T17:38:43.060Z,101646.41
2023-03-29T17:41:11.137Z,101654.38
2023-03-29T17:43:38.438Z,101657.06
2023-03-29T17:46:06.164Z,101650.72
2023-03-29T17:48:33.889Z,101657.78
2023-03-29T17:51:01.276Z,101663.06
2023-03-29T17:53:28.569Z,101662.22
2023-03-29T17:55:55.808Z,101670.28
2023-03-29T17:58:23.098Z,101660.47
2023-03-29T18:00:50.545Z,101659.53
2023-03-29T18:03:17.843Z,101660.47
2023-03-29T18:05:45.545Z,101670.28
2023-03-29T18:08:13.682Z,101664.91
2023-03-29T18:10:41.215Z,101660.38
2023-03-29T18:13:13.751Z,101671.00
2023-03-29T18:15:41.134Z,101673.69
2023-03-29T18:18:08.342Z,101674.53
2023-03-29T18:20:35.642Z,101670.16
2023-03-29T18:23:03.294Z,101673.69
2023-03-29T18:25:30.549Z,101679.91
2023-03-29T18:27:57.765Z,101683.44
2023-03-29T18:30:25.077Z,101685.28
2023-03-29T18:32:53.134Z,101695.91
2023-03-29T18:35:20.541Z,101696.66
2023-03-29T18:37:47.751Z,101695.81
2023-03-29T18:40:15.669Z,101707.50
2023-03-29T18:42:42.869Z,101704.81
2023-03-29T18:45:10.692Z,101709.34
2023-03-29T18:47:38.092Z,101719.19
2023-03-29T18:50:05.941Z,101711.13
2023-03-29T18:52:33.247Z,101712.97
2023-03-29T18:55:00.692Z,101717.47
2023-03-29T18:57:28.153Z,101709.44
2023-03-29T18:59:55.498Z,101710.28
2023-03-29T19:02:22.756Z,101717.47
2023-03-29T19:04:50.037Z,101722.84
2023-03-29T19:07:17.764Z,101721.13
2023-03-29T19:09:45.461Z,101708.56
2023-03-29T19:12:12.695Z,101719.31
2023-03-29T19:14:40.005Z,101724.56
2023-03-29T19:17:07.210Z,101731.75
2023-03-29T19:19:34.443Z,101729.91
2023-03-29T19:22:01.640Z,101729.91
2023-03-29T19:24:28.937Z,101732.59
2023-03-29T19:26:57.406Z,101732.59
2023-03-29T19:29:26.150Z,101737.97
2023-03-29T19:31:54.590Z,101732.59
2023-03-29T19:34:23.843Z,101737.13
2023-03-29T19:36:51.770Z,101744.22
2023-03-29T19:39:19.066Z,101744.22
2023-03-29T19:41:46.367Z,101744.22
2023-03-29T19:44:13.847Z,101743.25
2023-03-29T19:46:41.463Z,101745.06
2023-03-29T19:49:13.529Z,101740.56
2023-03-29T19:51:43.806Z,101745.94
2023-03-29T19:54:13.894Z,101753.00
2023-03-29T19:56:42.743Z,101746.78
2023-03-29T19:59:11.241Z,101747.63
2023-03-29T20:01:42.675Z,101747.63
2023-03-29T20:04:10.101Z,101751.19
2023-03-29T20:06:37.393Z,101752.03
2023-03-29T20:09:05.331Z,101751.19
2023-03-29T20:11:32.586Z,101748.50
2023-03-29T20:13:59.962Z,101752.88
2023-03-29T20:16:27.561Z,101748.41
2023-03-29T20:18:56.225Z,101744.84
2023-03-29T20:21:23.521Z,101752.03
2023-03-29T20:23:50.890Z,101747.53
2023-03-29T20:26:18.235Z,101750.22
2023-03-29T20:28:45.791Z,101750.22
2023-03-29T20:31:13.236Z,101746.66
2023-03-29T20:33:41.473Z,101749.34
2023-03-29T20:36:09.190Z,101752.03
2023-03-29T20:38:36.942Z,101743.91
2023-03-29T20:41:05.993Z,101745.72
2023-03-29T20:43:40.951Z,101743.91
2023-03-29T20:46:14.549Z,101746.59
2023-03-29T20:48:54.438Z,101751.09
2023-03-29T20:51:30.348Z,101750.97
2023-03-29T20:54:03.780Z,101754.63
2023-03-29T20:56:38.050Z,101749.25
2023-03-29T20:59:06.458Z,101763.53
2023-03-29T21:01:40.615Z,101761.72
2023-03-29T21:04:09.345Z,101769.63
2023-03-29T21:06:39.638Z,101778.53
2023-03-29T21:09:07.025Z,101775.00
2023-03-29T21:11:34.292Z,101774.16
2023-03-29T21:14:02.625Z,101777.69
2023-03-29T21:16:31.190Z,101785.75
2023-03-29T21:18:58.658Z,101789.28
2023-03-29T21:21:25.971Z,101793.72
2023-03-29T21:23:53.389Z,101798.22
2023-03-29T21:26:21.256Z,101796.47
2023-03-29T21:28:48.778Z,101792.84
2023-03-29T21:31:16.083Z,101803.59
2023-03-29T21:33:43.406Z,101796.47
2023-03-29T21:36:10.852Z,101791.97
2023-03-29T21:38:38.100Z,101789.28
2023-03-29T21:41:06.913Z,101791.03
2023-03-29T21:43:34.138Z,101777.59
2023-03-29T21:46:01.481Z,101781.16
2023-03-29T21:48:29.052Z,101777.47
2023-03-29T21:50:56.302Z,101773.94
2023-03-29T21:53:24.624Z,101770.28
2023-03-29T21:55:52.211Z,101778.34
2023-03-29T21:58:20.190Z,101784.56
2023-03-29T22:00:48.267Z,101782.84
2023-03-29T22:03:16.703Z,101779.19
2023-03-29T22:05:55.411Z,101781.03
2023-03-29T22:08:24.342Z,101772.13
2023-03-29T22:10:55.441Z,101773.81
2023-03-29T22:13:28.284Z,101778.25
2023-03-29T22:16:00.222Z,101771.13
2023-03-29T22:18:30.215Z,101771.13
2023-03-29T22:20:57.552Z,101784.47
2023-03-29T22:23:24.957Z,101778.25
2023-03-29T22:25:52.232Z,101784.47
2023-03-29T22:28:19.523Z,101788.00
2023-03-29T22:30:46.765Z,101784.47
2023-03-29T22:33:14.006Z,101790.78
2023-03-29T22:35:41.357Z,101799.81
2023-03-29T22:38:08.722Z,101801.53
2023-03-29T22:40:40.153Z,101789.94
2023-03-29T22:43:07.396Z,101796.28
2023-03-29T22:45:34.657Z,101785.53
2023-03-29T22:48:02.154Z,101785.53
2023-03-29T22:50:29.550Z,101783.81
2023-03-29T22:52:57.009Z,101792.72
2023-03-29T22:55:24.215Z,101794.56
2023-03-29T22:57:51.471Z,101787.47
2023-03-29T23:00:19.231Z,101783.81
2023-03-29T23:02:46.562Z,101776.75
2023-03-29T23:05:13.959Z,101779.44
2023-03-29T23:07:41.487Z,101779.44
2023-03-29T23:10:09.306Z,101775.00
2023-03-29T23:12:36.694Z,101767.81
2023-03-29T23:15:06.364Z,101767.81
2023-03-29T23:17:34.941Z,101769.63
2023-03-29T23:20:06.029Z,101768.78
2023-03-29T23:22:34.307Z,101772.44
2023-03-29T23:25:08.388Z,101778.66
2023-03-29T23:27:35.805Z,101771.47
2023-03-29T23:30:03.442Z,101760.84
2023-03-29T23:32:30.863Z,101760.84
2023-03-29T23:35:00.019Z,101750.13
2023-03-29T23:37:28.021Z,101757.31
2023-03-29T23:39:55.306Z,101762.69
2023-03-29T23:42:22.738Z,101768.91
2023-03-29T23:44:50.682Z,101773.41
2023-03-29T23:47:17.953Z,101765.38
2023-03-29T23:49:45.420Z,101766.31
2023-03-29T23:52:13.185Z,101767.19
2023-03-29T23:54:40.427Z,101764.50
2023-03-29T23:57:07.826Z,101764.50
2023-03-29T23:59:37.856Z,101762.78
